Sanford, California
Current Conditions -  °F | °C
As of 11:47 PM on Wednesday 22 Oct 2014 (Local Time) from KCQT Reporting Station
Clear Clear  
Wind Chill: 19°   Ceiling: Unl
Heat Index: 19°   Visibility: 10mi
Dew Point: 15°   Wind: 0mph
Humidity: 78%   Direction: NA
Pressure: 29.96"   Gusts: NA
Location:  34.0664°N, 118.31°W
Report Text: KCQT 230647Z AUTO 00000KT 10SM CLR 19/15 A2996 RMK AO2 SLP142 T01890150
Loading
Personal Weather Stations






























Interactive Weather Map
Tropical Storm Tracking
New forecast layout! Learn more

10-Day Weather Forecast

Advertisements
Track Severe Weather on mobile